sensor_id;sensor_type;location;lat;lon;timestamp;P1;durP1;ratioP1;P2;durP2;ratioP2
79052;SDS011;68451;49.510;6.026;2024-02-21T00:00:53;11.30;;;5.90;;
79052;SDS011;68451;49.510;6.026;2024-02-21T00:05:00;18.27;;;6.73;;
79052;SDS011;68451;49.510;6.026;2024-02-21T00:07:02;18.73;;;6.83;;
79052;SDS011;68451;49.510;6.026;2024-02-21T00:09:05;12.77;;;5.80;;
79052;SDS011;68451;49.510;6.026;2024-02-21T00:11:07;17.40;;;7.28;;
79052;SDS011;68451;49.510;6.026;2024-02-21T00:13:09;15.33;;;6.37;;
79052;SDS011;68451;49.510;6.026;2024-02-21T00:17:12;11.10;;;7.18;;
79052;SDS011;68451;49.510;6.026;2024-02-21T00:21:16;14.90;;;6.68;;
79052;SDS011;68451;49.510;6.026;2024-02-21T00:23:19;17.23;;;6.03;;
79052;SDS011;68451;49.510;6.026;2024-02-21T00:27:23;11.32;;;5.85;;
79052;SDS011;68451;49.510;6.026;2024-02-21T00:29:25;11.57;;;6.35;;
79052;SDS011;68451;49.510;6.026;2024-02-21T00:33:28;16.45;;;6.22;;
79052;SDS011;68451;49.510;6.026;2024-02-21T00:35:30;13.93;;;6.33;;
79052;SDS011;68451;49.510;6.026;2024-02-21T00:37:32;11.73;;;6.97;;
79052;SDS011;68451;49.510;6.026;2024-02-21T00:41:36;8.63;;;6.07;;
79052;SDS011;68451;49.510;6.026;2024-02-21T00:43:38;13.80;;;6.97;;
79052;SDS011;68451;49.510;6.026;2024-02-21T00:45:40;12.73;;;6.60;;
79052;SDS011;68451;49.510;6.026;2024-02-21T00:47:42;13.07;;;7.17;;
79052;SDS011;68451;49.510;6.026;2024-02-21T00:49:44;14.40;;;7.30;;
79052;SDS011;68451;49.510;6.026;2024-02-21T00:53:48;15.30;;;7.25;;
79052;SDS011;68451;49.510;6.026;2024-02-21T00:57:52;13.32;;;6.25;;
79052;SDS011;68451;49.510;6.026;2024-02-21T01:01:55;17.88;;;6.00;;
79052;SDS011;68451;49.510;6.026;2024-02-21T01:03:57;13.03;;;6.43;;
79052;SDS011;68451;49.510;6.026;2024-02-21T01:05:59;15.80;;;7.10;;
79052;SDS011;68451;49.510;6.026;2024-02-21T01:10:03;11.00;;;6.28;;
79052;SDS011;68451;49.510;6.026;2024-02-21T01:12:05;13.93;;;7.37;;
79052;SDS011;68451;49.510;6.026;2024-02-21T01:14:07;12.47;;;6.07;;
79052;SDS011;68451;49.510;6.026;2024-02-21T01:18:11;13.77;;;5.78;;
79052;SDS011;68451;49.510;6.026;2024-02-21T01:20:13;13.17;;;6.77;;
79052;SDS011;68451;49.510;6.026;2024-02-21T01:22:15;12.27;;;6.13;;
79052;SDS011;68451;49.510;6.026;2024-02-21T01:24:18;17.00;;;6.23;;
79052;SDS011;68451;49.510;6.026;2024-02-21T01:26:19;13.17;;;6.63;;
79052;SDS011;68451;49.510;6.026;2024-02-21T01:30:23;12.25;;;7.18;;
79052;SDS011;68451;49.510;6.026;2024-02-21T01:32:25;11.38;;;6.07;;
79052;SDS011;68451;49.510;6.026;2024-02-21T01:36:32;12.27;;;6.77;;
79052;SDS011;68451;49.510;6.026;2024-02-21T01:40:36;22.80;;;7.38;;
79052;SDS011;68451;49.510;6.026;2024-02-21T01:42:39;11.43;;;5.43;;
79052;SDS011;68451;49.510;6.026;2024-02-21T01:44:42;15.33;;;6.13;;
79052;SDS011;68451;49.510;6.026;2024-02-21T01:48:45;15.82;;;6.40;;
79052;SDS011;68451;49.510;6.026;2024-02-21T01:50:51;14.17;;;6.67;;
79052;SDS011;68451;49.510;6.026;2024-02-21T01:52:55;13.40;;;7.27;;
79052;SDS011;68451;49.510;6.026;2024-02-21T01:54:57;12.23;;;6.07;;
79052;SDS011;68451;49.510;6.026;2024-02-21T01:56:59;16.87;;;6.47;;
79052;SDS011;68451;49.510;6.026;2024-02-21T01:59:01;18.63;;;6.40;;
79052;SDS011;68451;49.510;6.026;2024-02-21T02:01:03;16.10;;;6.63;;
79052;SDS011;68451;49.510;6.026;2024-02-21T02:05:08;10.63;;;5.80;;
79052;SDS011;68451;49.510;6.026;2024-02-21T02:07:10;11.93;;;6.10;;
79052;SDS011;68451;49.510;6.026;2024-02-21T02:09:13;16.27;;;6.07;;
79052;SDS011;68451;49.510;6.026;2024-02-21T02:13:16;12.82;;;5.53;;
79052;SDS011;68451;49.510;6.026;2024-02-21T02:15:18;11.53;;;5.70;;
79052;SDS011;68451;49.510;6.026;2024-02-21T02:19:22;14.50;;;5.63;;
79052;SDS011;68451;49.510;6.026;2024-02-21T02:21:32;11.20;;;6.33;;
79052;SDS011;68451;49.510;6.026;2024-02-21T02:23:39;12.03;;;5.97;;
79052;SDS011;68451;49.510;6.026;2024-02-21T02:25:42;12.90;;;5.63;;
79052;SDS011;68451;49.510;6.026;2024-02-21T02:27:45;13.23;;;7.30;;
79052;SDS011;68451;49.510;6.026;2024-02-21T02:29:47;11.57;;;5.77;;
79052;SDS011;68451;49.510;6.026;2024-02-21T02:33:50;14.13;;;6.43;;
79052;SDS011;68451;49.510;6.026;2024-02-21T02:35:52;13.70;;;7.17;;
79052;SDS011;68451;49.510;6.026;2024-02-21T02:39:56;11.25;;;5.68;;
79052;SDS011;68451;49.510;6.026;2024-02-21T02:44:00;10.52;;;5.18;;
79052;SDS011;68451;49.510;6.026;2024-02-21T02:46:02;11.40;;;6.30;;
79052;SDS011;68451;49.510;6.026;2024-02-21T02:48:05;15.57;;;6.80;;
79052;SDS011;68451;49.510;6.026;2024-02-21T02:50:07;12.27;;;6.30;;
79052;SDS011;68451;49.510;6.026;2024-02-21T02:52:09;16.10;;;6.93;;
79052;SDS011;68451;49.510;6.026;2024-02-21T02:56:15;14.10;;;7.07;;
79052;SDS011;68451;49.510;6.026;2024-02-21T02:58:17;10.77;;;5.73;;
79052;SDS011;68451;49.510;6.026;2024-02-21T03:02:21;14.20;;;6.55;;
79052;SDS011;68451;49.510;6.026;2024-02-21T03:04:23;12.30;;;6.23;;
79052;SDS011;68451;49.510;6.026;2024-02-21T03:06:25;16.00;;;7.93;;
79052;SDS011;68451;49.510;6.026;2024-02-21T03:10:29;11.15;;;5.85;;
79052;SDS011;68451;49.510;6.026;2024-02-21T03:14:32;11.70;;;7.20;;
79052;SDS011;68451;49.510;6.026;2024-02-21T03:18:36;14.48;;;6.05;;
79052;SDS011;68451;49.510;6.026;2024-02-21T03:20:38;15.67;;;6.80;;
79052;SDS011;68451;49.510;6.026;2024-02-21T03:22:40;13.77;;;6.97;;
79052;SDS011;68451;49.510;6.026;2024-02-21T03:24:42;13.60;;;7.00;;
79052;SDS011;68451;49.510;6.026;2024-02-21T03:26:45;12.17;;;7.07;;
79052;SDS011;68451;49.510;6.026;2024-02-21T03:28:50;14.00;;;7.23;;
79052;SDS011;68451;49.510;6.026;2024-02-21T03:32:54;16.58;;;6.60;;
79052;SDS011;68451;49.510;6.026;2024-02-21T03:34:56;18.33;;;7.65;;
79052;SDS011;68451;49.510;6.026;2024-02-21T03:36:58;13.50;;;6.77;;
79052;SDS011;68451;49.510;6.026;2024-02-21T03:39:01;13.83;;;7.00;;
79052;SDS011;68451;49.510;6.026;2024-02-21T03:41:03;15.50;;;7.03;;
79052;SDS011;68451;49.510;6.026;2024-02-21T03:43:04;13.43;;;6.33;;
79052;SDS011;68451;49.510;6.026;2024-02-21T03:45:06;10.75;;;6.65;;
79052;SDS011;68451;49.510;6.026;2024-02-21T03:47:09;13.63;;;7.43;;
79052;SDS011;68451;49.510;6.026;2024-02-21T03:49:13;11.17;;;5.53;;
79052;SDS011;68451;49.510;6.026;2024-02-21T03:51:15;11.67;;;6.37;;
79052;SDS011;68451;49.510;6.026;2024-02-21T03:55:18;17.13;;;6.47;;
79052;SDS011;68451;49.510;6.026;2024-02-21T03:59:22;16.67;;;7.63;;
79052;SDS011;68451;49.510;6.026;2024-02-21T04:03:26;13.45;;;6.50;;
79052;SDS011;68451;49.510;6.026;2024-02-21T04:05:28;11.60;;;6.93;;
79052;SDS011;68451;49.510;6.026;2024-02-21T04:09:34;13.57;;;6.30;;
79052;SDS011;68451;49.510;6.026;2024-02-21T04:11:36;10.67;;;6.63;;
79052;SDS011;68451;49.510;6.026;2024-02-21T04:15:40;13.02;;;6.20;;
79052;SDS011;68451;49.510;6.026;2024-02-21T04:19:44;11.90;;;7.00;;
79052;SDS011;68451;49.510;6.026;2024-02-21T04:23:47;16.27;;;6.82;;
79052;SDS011;68451;49.510;6.026;2024-02-21T04:25:49;10.47;;;5.27;;
79052;SDS011;68451;49.510;6.026;2024-02-21T04:27:51;14.47;;;7.03;;
79052;SDS011;68451;49.510;6.026;2024-02-21T04:31:55;13.35;;;6.47;;
79052;SDS011;68451;49.510;6.026;2024-02-21T04:33:57;11.33;;;5.93;;
79052;SDS011;68451;49.510;6.026;2024-02-21T04:38:02;11.70;;;6.07;;
79052;SDS011;68451;49.510;6.026;2024-02-21T04:40:04;15.30;;;6.07;;
79052;SDS011;68451;49.510;6.026;2024-02-21T04:42:06;12.93;;;6.00;;
79052;SDS011;68451;49.510;6.026;2024-02-21T04:44:08;11.57;;;6.80;;
79052;SDS011;68451;49.510;6.026;2024-02-21T04:48:12;14.90;;;6.35;;
79052;SDS011;68451;49.510;6.026;2024-02-21T04:52:15;12.05;;;5.90;;
79052;SDS011;68451;49.510;6.026;2024-02-21T04:54:17;17.10;;;6.38;;
79052;SDS011;68451;49.510;6.026;2024-02-21T04:58:20;16.95;;;6.43;;
79052;SDS011;68451;49.510;6.026;2024-02-21T05:04:44;12.27;;;6.37;;
79052;SDS011;68451;49.510;6.026;2024-02-21T05:06:47;14.60;;;6.13;;
79052;SDS011;68451;49.510;6.026;2024-02-21T05:10:50;11.98;;;7.05;;
79052;SDS011;68451;49.510;6.026;2024-02-21T05:12:52;10.53;;;5.83;;
79052;SDS011;68451;49.510;6.026;2024-02-21T05:16:56;20.02;;;6.43;;
79052;SDS011;68451;49.510;6.026;2024-02-21T05:18:58;12.57;;;6.10;;
79052;SDS011;68451;49.510;6.026;2024-02-21T05:21:00;11.53;;;6.70;;
79052;SDS011;68451;49.510;6.026;2024-02-21T05:23:02;16.17;;;7.40;;
79052;SDS011;68451;49.510;6.026;2024-02-21T05:25:04;12.07;;;5.83;;
79052;SDS011;68451;49.510;6.026;2024-02-21T05:27:07;14.23;;;6.73;;
79052;SDS011;68451;49.510;6.026;2024-02-21T05:31:10;13.65;;;7.50;;
79052;SDS011;68451;49.510;6.026;2024-02-21T05:33:12;9.35;;;5.93;;
79052;SDS011;68451;49.510;6.026;2024-02-21T05:35:26;12.17;;;6.07;;
79052;SDS011;68451;49.510;6.026;2024-02-21T05:37:29;12.50;;;6.17;;
79052;SDS011;68451;49.510;6.026;2024-02-21T05:41:33;10.57;;;5.90;;
79052;SDS011;68451;49.510;6.026;2024-02-21T05:45:36;11.93;;;6.57;;
79052;SDS011;68451;49.510;6.026;2024-02-21T05:47:38;12.43;;;5.87;;
79052;SDS011;68451;49.510;6.026;2024-02-21T05:51:42;10.15;;;5.93;;
79052;SDS011;68451;49.510;6.026;2024-02-21T05:55:46;9.27;;;5.97;;
79052;SDS011;68451;49.510;6.026;2024-02-21T05:59:49;14.93;;;6.65;;
79052;SDS011;68451;49.510;6.026;2024-02-21T06:03:57;11.53;;;5.47;;
79052;SDS011;68451;49.510;6.026;2024-02-21T06:05:59;13.17;;;5.53;;
79052;SDS011;68451;49.510;6.026;2024-02-21T06:08:02;11.17;;;6.40;;
79052;SDS011;68451;49.510;6.026;2024-02-21T06:10:05;12.00;;;5.73;;
79052;SDS011;68451;49.510;6.026;2024-02-21T06:12:08;16.17;;;5.77;;
79052;SDS011;68451;49.510;6.026;2024-02-21T06:14:10;11.17;;;5.13;;
79052;SDS011;68451;49.510;6.026;2024-02-21T06:18:14;19.85;;;5.68;;
79052;SDS011;68451;49.510;6.026;2024-02-21T06:22:17;10.82;;;5.93;;
79052;SDS011;68451;49.510;6.026;2024-02-21T06:26:21;13.02;;;5.28;;
79052;SDS011;68451;49.510;6.026;2024-02-21T06:28:23;10.30;;;5.55;;
79052;SDS011;68451;49.510;6.026;2024-02-21T06:30:25;10.27;;;4.23;;
79052;SDS011;68451;49.510;6.026;2024-02-21T06:32:28;15.73;;;6.13;;
79052;SDS011;68451;49.510;6.026;2024-02-21T06:36:34;12.40;;;5.43;;
79052;SDS011;68451;49.510;6.026;2024-02-21T06:40:38;10.05;;;4.60;;
79052;SDS011;68451;49.510;6.026;2024-02-21T06:42:41;12.40;;;5.23;;
79052;SDS011;68451;49.510;6.026;2024-02-21T06:44:46;9.93;;;4.90;;
79052;SDS011;68451;49.510;6.026;2024-02-21T06:46:48;12.77;;;5.33;;
79052;SDS011;68451;49.510;6.026;2024-02-21T06:50:52;17.90;;;6.03;;
79052;SDS011;68451;49.510;6.026;2024-02-21T06:52:54;10.80;;;5.00;;
79052;SDS011;68451;49.510;6.026;2024-02-21T06:56:57;8.57;;;4.68;;
79052;SDS011;68451;49.510;6.026;2024-02-21T06:58:59;10.95;;;4.80;;
79052;SDS011;68451;49.510;6.026;2024-02-21T07:01:01;10.90;;;4.97;;
79052;SDS011;68451;49.510;6.026;2024-02-21T07:03:03;10.47;;;5.43;;
79052;SDS011;68451;49.510;6.026;2024-02-21T07:05:05;10.03;;;5.30;;
79052;SDS011;68451;49.510;6.026;2024-02-21T07:07:08;11.10;;;5.47;;
79052;SDS011;68451;49.510;6.026;2024-02-21T07:09:10;8.50;;;4.77;;
79052;SDS011;68451;49.510;6.026;2024-02-21T07:13:13;16.85;;;4.93;;
79052;SDS011;68451;49.510;6.026;2024-02-21T07:15:17;10.43;;;5.83;;
79052;SDS011;68451;49.510;6.026;2024-02-21T07:19:20;5.95;;;3.97;;
79052;SDS011;68451;49.510;6.026;2024-02-21T07:21:22;11.97;;;4.40;;
79052;SDS011;68451;49.510;6.026;2024-02-21T07:25:26;11.05;;;4.72;;
79052;SDS011;68451;49.510;6.026;2024-02-21T07:29:32;10.33;;;4.17;;
79052;SDS011;68451;49.510;6.026;2024-02-21T07:33:44;11.20;;;4.50;;
79052;SDS011;68451;49.510;6.026;2024-02-21T07:37:48;12.43;;;5.00;;
79052;SDS011;68451;49.510;6.026;2024-02-21T07:39:50;12.97;;;4.37;;
79052;SDS011;68451;49.510;6.026;2024-02-21T07:43:54;9.23;;;3.95;;
79052;SDS011;68451;49.510;6.026;2024-02-21T07:47:58;9.77;;;4.45;;
79052;SDS011;68451;49.510;6.026;2024-02-21T07:49:59;12.90;;;5.30;;
79052;SDS011;68451;49.510;6.026;2024-02-21T07:54:04;11.63;;;4.90;;
79052;SDS011;68451;49.510;6.026;2024-02-21T07:58:08;8.85;;;4.80;;
79052;SDS011;68451;49.510;6.026;2024-02-21T08:02:16;8.77;;;4.60;;
79052;SDS011;68451;49.510;6.026;2024-02-21T08:04:18;17.57;;;5.47;;
79052;SDS011;68451;49.510;6.026;2024-02-21T08:06:20;10.00;;;4.40;;
79052;SDS011;68451;49.510;6.026;2024-02-21T08:08:22;9.37;;;4.33;;
79052;SDS011;68451;49.510;6.026;2024-02-21T08:10:24;12.95;;;4.35;;
79052;SDS011;68451;49.510;6.026;2024-02-21T08:14:28;10.07;;;4.70;;
79052;SDS011;68451;49.510;6.026;2024-02-21T08:16:30;11.77;;;4.72;;
79052;SDS011;68451;49.510;6.026;2024-02-21T08:20:37;11.90;;;5.43;;
79052;SDS011;68451;49.510;6.026;2024-02-21T08:24:41;14.20;;;5.35;;
79052;SDS011;68451;49.510;6.026;2024-02-21T08:26:43;12.17;;;5.47;;
79052;SDS011;68451;49.510;6.026;2024-02-21T08:28:48;9.30;;;3.80;;
79052;SDS011;68451;49.510;6.026;2024-02-21T08:30:52;14.03;;;4.80;;
79052;SDS011;68451;49.510;6.026;2024-02-21T08:34:56;10.73;;;4.03;;
79052;SDS011;68451;49.510;6.026;2024-02-21T08:36:58;9.07;;;4.00;;
79052;SDS011;68451;49.510;6.026;2024-02-21T08:39:00;7.17;;;4.00;;
79052;SDS011;68451;49.510;6.026;2024-02-21T08:41:04;11.43;;;4.23;;
79052;SDS011;68451;49.510;6.026;2024-02-21T08:43:06;9.37;;;4.40;;
79052;SDS011;68451;49.510;6.026;2024-02-21T08:47:10;11.15;;;4.13;;
79052;SDS011;68451;49.510;6.026;2024-02-21T08:49:12;9.60;;;4.77;;
79052;SDS011;68451;49.510;6.026;2024-02-21T08:51:15;10.60;;;4.50;;
79052;SDS011;68451;49.510;6.026;2024-02-21T08:53:17;11.33;;;4.20;;
79052;SDS011;68451;49.510;6.026;2024-02-21T08:57:20;11.60;;;5.00;;
79052;SDS011;68451;49.510;6.026;2024-02-21T08:59:22;15.23;;;5.22;;
79052;SDS011;68451;49.510;6.026;2024-02-21T09:01:24;12.70;;;6.80;;
79052;SDS011;68451;49.510;6.026;2024-02-21T09:03:26;8.87;;;4.00;;
79052;SDS011;68451;49.510;6.026;2024-02-21T09:07:30;9.70;;;4.68;;
79052;SDS011;68451;49.510;6.026;2024-02-21T09:09:32;11.07;;;4.50;;
79052;SDS011;68451;49.510;6.026;2024-02-21T09:11:34;10.37;;;5.93;;
79052;SDS011;68451;49.510;6.026;2024-02-21T09:13:36;12.20;;;4.63;;
79052;SDS011;68451;49.510;6.026;2024-02-21T09:15:38;10.13;;;5.40;;
79052;SDS011;68451;49.510;6.026;2024-02-21T09:19:42;10.20;;;4.45;;
79052;SDS011;68451;49.510;6.026;2024-02-21T09:21:45;9.03;;;4.37;;
79052;SDS011;68451;49.510;6.026;2024-02-21T09:23:47;10.20;;;4.50;;
79052;SDS011;68451;49.510;6.026;2024-02-21T09:25:49;10.25;;;4.78;;
79052;SDS011;68451;49.510;6.026;2024-02-21T09:27:51;7.27;;;4.30;;
79052;SDS011;68451;49.510;6.026;2024-02-21T09:29:55;8.67;;;3.77;;
79052;SDS011;68451;49.510;6.026;2024-02-21T09:31:57;10.17;;;5.03;;
79052;SDS011;68451;49.510;6.026;2024-02-21T09:33:59;8.10;;;5.00;;
79052;SDS011;68451;49.510;6.026;2024-02-21T09:36:01;8.87;;;4.67;;
79052;SDS011;68451;49.510;6.026;2024-02-21T09:38:03;15.47;;;5.07;;
79052;SDS011;68451;49.510;6.026;2024-02-21T09:40:06;9.87;;;5.10;;
79052;SDS011;68451;49.510;6.026;2024-02-21T09:42:08;11.23;;;5.03;;
79052;SDS011;68451;49.510;6.026;2024-02-21T09:44:13;9.83;;;4.60;;
79052;SDS011;68451;49.510;6.026;2024-02-21T09:46:16;11.83;;;4.97;;
79052;SDS011;68451;49.510;6.026;2024-02-21T09:50:34;11.23;;;5.47;;
79052;SDS011;68451;49.510;6.026;2024-02-21T09:52:39;10.50;;;4.23;;
79052;SDS011;68451;49.510;6.026;2024-02-21T09:54:42;8.60;;;4.20;;
79052;SDS011;68451;49.510;6.026;2024-02-21T09:56:46;17.93;;;5.33;;
79052;SDS011;68451;49.510;6.026;2024-02-21T09:58:49;10.13;;;4.70;;
79052;SDS011;68451;49.510;6.026;2024-02-21T10:00:51;19.37;;;5.03;;
79052;SDS011;68451;49.510;6.026;2024-02-21T10:02:53;7.47;;;4.23;;
79052;SDS011;68451;49.510;6.026;2024-02-21T10:04:55;9.27;;;3.87;;
79052;SDS011;68451;49.510;6.026;2024-02-21T10:06:57;11.83;;;4.17;;
79052;SDS011;68451;49.510;6.026;2024-02-21T10:08:59;11.10;;;4.27;;
79052;SDS011;68451;49.510;6.026;2024-02-21T10:13:04;9.63;;;4.23;;
79052;SDS011;68451;49.510;6.026;2024-02-21T10:17:08;6.95;;;4.20;;
79052;SDS011;68451;49.510;6.026;2024-02-21T10:19:19;9.60;;;4.40;;
79052;SDS011;68451;49.510;6.026;2024-02-21T10:21:22;7.63;;;4.30;;
79052;SDS011;68451;49.510;6.026;2024-02-21T10:25:25;6.65;;;4.32;;
79052;SDS011;68451;49.510;6.026;2024-02-21T10:27:27;6.27;;;3.60;;
79052;SDS011;68451;49.510;6.026;2024-02-21T10:29:30;7.93;;;4.10;;
79052;SDS011;68451;49.510;6.026;2024-02-21T10:31:33;7.03;;;3.43;;
79052;SDS011;68451;49.510;6.026;2024-02-21T10:33:35;8.77;;;4.00;;
79052;SDS011;68451;49.510;6.026;2024-02-21T10:35:37;7.67;;;4.67;;
79052;SDS011;68451;49.510;6.026;2024-02-21T10:37:39;16.90;;;3.97;;
79052;SDS011;68451;49.510;6.026;2024-02-21T10:41:43;8.50;;;4.17;;
79052;SDS011;68451;49.510;6.026;2024-02-21T10:43:50;8.00;;;4.00;;
79052;SDS011;68451;49.510;6.026;2024-02-21T10:45:55;14.80;;;4.87;;
79052;SDS011;68451;49.510;6.026;2024-02-21T10:48:08;9.27;;;3.97;;
79052;SDS011;68451;49.510;6.026;2024-02-21T10:50:13;6.23;;;3.67;;
79052;SDS011;68451;49.510;6.026;2024-02-21T10:52:21;12.27;;;4.50;;
79052;SDS011;68451;49.510;6.026;2024-02-21T10:55:00;8.93;;;4.50;;
79052;SDS011;68451;49.510;6.026;2024-02-21T10:57:03;9.43;;;4.10;;
79052;SDS011;68451;49.510;6.026;2024-02-21T10:59:07;8.13;;;3.80;;
79052;SDS011;68451;49.510;6.026;2024-02-21T11:01:09;8.43;;;4.00;;
79052;SDS011;68451;49.510;6.026;2024-02-21T11:03:14;11.67;;;4.23;;
79052;SDS011;68451;49.510;6.026;2024-02-21T11:05:16;7.03;;;3.90;;
79052;SDS011;68451;49.510;6.026;2024-02-21T11:07:19;7.23;;;3.83;;
79052;SDS011;68451;49.510;6.026;2024-02-21T11:09:29;7.70;;;4.13;;
79052;SDS011;68451;49.510;6.026;2024-02-21T11:11:39;6.53;;;3.40;;
79052;SDS011;68451;49.510;6.026;2024-02-21T11:13:43;12.50;;;4.23;;
79052;SDS011;68451;49.510;6.026;2024-02-21T11:15:45;16.37;;;4.10;;
79052;SDS011;68451;49.510;6.026;2024-02-21T11:17:55;7.07;;;3.80;;
79052;SDS011;68451;49.510;6.026;2024-02-21T11:20:12;7.37;;;3.80;;
79052;SDS011;68451;49.510;6.026;2024-02-21T11:22:18;10.37;;;3.80;;
79052;SDS011;68451;49.510;6.026;2024-02-21T11:24:39;6.53;;;3.67;;
79052;SDS011;68451;49.510;6.026;2024-02-21T11:26:41;7.77;;;4.07;;
79052;SDS011;68451;49.510;6.026;2024-02-21T11:28:55;8.57;;;3.83;;
79052;SDS011;68451;49.510;6.026;2024-02-21T11:31:13;7.80;;;3.83;;
79052;SDS011;68451;49.510;6.026;2024-02-21T11:33:15;8.43;;;4.20;;
79052;SDS011;68451;49.510;6.026;2024-02-21T11:35:19;10.23;;;4.03;;
79052;SDS011;68451;49.510;6.026;2024-02-21T11:37:23;11.73;;;3.93;;
79052;SDS011;68451;49.510;6.026;2024-02-21T11:39:27;9.37;;;4.03;;
79052;SDS011;68451;49.510;6.026;2024-02-21T11:41:29;9.00;;;3.90;;
79052;SDS011;68451;49.510;6.026;2024-02-21T11:45:33;10.73;;;4.10;;
79052;SDS011;68451;49.510;6.026;2024-02-21T11:47:35;12.27;;;4.53;;
79052;SDS011;68451;49.510;6.026;2024-02-21T11:49:47;8.00;;;4.30;;
79052;SDS011;68451;49.510;6.026;2024-02-21T11:52:01;6.73;;;3.30;;
79052;SDS011;68451;49.510;6.026;2024-02-21T11:54:05;6.37;;;3.53;;
79052;SDS011;68451;49.510;6.026;2024-02-21T11:56:07;9.67;;;4.17;;
79052;SDS011;68451;49.510;6.026;2024-02-21T11:58:09;11.03;;;4.50;;
79052;SDS011;68451;49.510;6.026;2024-02-21T12:02:14;7.83;;;3.70;;
79052;SDS011;68451;49.510;6.026;2024-02-21T12:04:16;5.17;;;3.10;;
79052;SDS011;68451;49.510;6.026;2024-02-21T12:06:20;7.50;;;3.73;;
79052;SDS011;68451;49.510;6.026;2024-02-21T12:08:23;6.97;;;3.33;;
79052;SDS011;68451;49.510;6.026;2024-02-21T12:10:25;8.80;;;3.40;;
79052;SDS011;68451;49.510;6.026;2024-02-21T12:12:29;11.70;;;3.30;;
79052;SDS011;68451;49.510;6.026;2024-02-21T12:16:34;7.10;;;3.30;;
79052;SDS011;68451;49.510;6.026;2024-02-21T12:18:36;8.07;;;4.17;;
79052;SDS011;68451;49.510;6.026;2024-02-21T12:20:38;6.50;;;3.90;;
79052;SDS011;68451;49.510;6.026;2024-02-21T12:22:42;10.03;;;3.87;;
79052;SDS011;68451;49.510;6.026;2024-02-21T12:24:44;13.50;;;3.60;;
79052;SDS011;68451;49.510;6.026;2024-02-21T12:26:52;7.77;;;4.10;;
79052;SDS011;68451;49.510;6.026;2024-02-21T12:28:55;8.63;;;3.80;;
79052;SDS011;68451;49.510;6.026;2024-02-21T12:30:57;8.27;;;4.00;;
79052;SDS011;68451;49.510;6.026;2024-02-21T12:32:59;10.07;;;3.13;;
79052;SDS011;68451;49.510;6.026;2024-02-21T12:35:03;9.00;;;3.30;;
79052;SDS011;68451;49.510;6.026;2024-02-21T12:37:05;6.27;;;3.07;;
79052;SDS011;68451;49.510;6.026;2024-02-21T12:39:07;7.20;;;3.67;;
79052;SDS011;68451;49.510;6.026;2024-02-21T12:41:09;6.63;;;3.67;;
79052;SDS011;68451;49.510;6.026;2024-02-21T12:43:11;6.93;;;3.33;;
79052;SDS011;68451;49.510;6.026;2024-02-21T12:45:16;9.55;;;3.72;;
79052;SDS011;68451;49.510;6.026;2024-02-21T12:47:18;15.03;;;3.87;;
79052;SDS011;68451;49.510;6.026;2024-02-21T12:49:24;5.70;;;3.20;;
79052;SDS011;68451;49.510;6.026;2024-02-21T12:51:31;7.17;;;3.30;;
79052;SDS011;68451;49.510;6.026;2024-02-21T12:53:33;12.47;;;5.30;;
79052;SDS011;68451;49.510;6.026;2024-02-21T12:55:35;14.43;;;4.00;;
79052;SDS011;68451;49.510;6.026;2024-02-21T12:57:37;7.53;;;4.10;;
79052;SDS011;68451;49.510;6.026;2024-02-21T13:01:41;11.77;;;3.67;;
79052;SDS011;68451;49.510;6.026;2024-02-21T13:03:43;9.27;;;3.40;;
79052;SDS011;68451;49.510;6.026;2024-02-21T13:05:45;6.13;;;2.97;;
79052;SDS011;68451;49.510;6.026;2024-02-21T13:07:49;8.63;;;3.57;;
79052;SDS011;68451;49.510;6.026;2024-02-21T13:09:51;8.30;;;3.40;;
79052;SDS011;68451;49.510;6.026;2024-02-21T13:11:53;7.03;;;3.47;;
79052;SDS011;68451;49.510;6.026;2024-02-21T13:13:55;9.87;;;3.17;;
79052;SDS011;68451;49.510;6.026;2024-02-21T13:17:59;7.78;;;3.10;;
79052;SDS011;68451;49.510;6.026;2024-02-21T13:20:01;6.20;;;3.00;;
79052;SDS011;68451;49.510;6.026;2024-02-21T13:22:03;9.83;;;3.43;;
79052;SDS011;68451;49.510;6.026;2024-02-21T13:24:05;8.43;;;3.40;;
79052;SDS011;68451;49.510;6.026;2024-02-21T13:26:07;5.57;;;2.80;;
79052;SDS011;68451;49.510;6.026;2024-02-21T13:28:10;9.33;;;3.63;;
79052;SDS011;68451;49.510;6.026;2024-02-21T13:30:13;6.67;;;3.50;;
79052;SDS011;68451;49.510;6.026;2024-02-21T13:32:17;5.80;;;3.83;;
79052;SDS011;68451;49.510;6.026;2024-02-21T13:36:20;11.18;;;4.55;;
79052;SDS011;68451;49.510;6.026;2024-02-21T13:40:25;5.60;;;3.00;;
79052;SDS011;68451;49.510;6.026;2024-02-21T13:42:27;8.90;;;3.63;;
79052;SDS011;68451;49.510;6.026;2024-02-21T13:46:31;8.45;;;3.75;;
79052;SDS011;68451;49.510;6.026;2024-02-21T13:48:33;6.67;;;3.50;;
79052;SDS011;68451;49.510;6.026;2024-02-21T13:50:35;6.93;;;3.10;;
79052;SDS011;68451;49.510;6.026;2024-02-21T13:52:44;6.53;;;3.03;;
79052;SDS011;68451;49.510;6.026;2024-02-21T13:54:46;7.57;;;3.23;;
79052;SDS011;68451;49.510;6.026;2024-02-21T13:56:48;5.20;;;2.80;;
79052;SDS011;68451;49.510;6.026;2024-02-21T14:00:51;6.47;;;3.35;;
79052;SDS011;68451;49.510;6.026;2024-02-21T14:02:54;8.00;;;2.93;;
79052;SDS011;68451;49.510;6.026;2024-02-21T14:04:56;5.43;;;3.47;;
79052;SDS011;68451;49.510;6.026;2024-02-21T14:06:58;7.07;;;2.83;;
79052;SDS011;68451;49.510;6.026;2024-02-21T14:09:00;6.27;;;3.13;;
79052;SDS011;68451;49.510;6.026;2024-02-21T14:11:01;8.63;;;3.63;;
79052;SDS011;68451;49.510;6.026;2024-02-21T14:13:04;10.37;;;3.70;;
79052;SDS011;68451;49.510;6.026;2024-02-21T14:15:06;7.47;;;3.43;;
79052;SDS011;68451;49.510;6.026;2024-02-21T14:17:08;4.37;;;3.10;;
79052;SDS011;68451;49.510;6.026;2024-02-21T14:19:10;5.23;;;3.00;;
79052;SDS011;68451;49.510;6.026;2024-02-21T14:21:13;10.97;;;3.87;;
79052;SDS011;68451;49.510;6.026;2024-02-21T14:23:15;11.20;;;3.90;;
79052;SDS011;68451;49.510;6.026;2024-02-21T14:25:17;6.30;;;3.93;;
79052;SDS011;68451;49.510;6.026;2024-02-21T14:27:19;6.63;;;2.83;;
79052;SDS011;68451;49.510;6.026;2024-02-21T14:29:21;5.97;;;2.73;;
79052;SDS011;68451;49.510;6.026;2024-02-21T14:31:23;8.33;;;3.13;;
79052;SDS011;68451;49.510;6.026;2024-02-21T14:33:27;7.37;;;3.13;;
79052;SDS011;68451;49.510;6.026;2024-02-21T14:35:29;7.23;;;3.27;;
79052;SDS011;68451;49.510;6.026;2024-02-21T14:39:32;8.07;;;3.33;;
79052;SDS011;68451;49.510;6.026;2024-02-21T14:41:36;8.53;;;3.53;;
79052;SDS011;68451;49.510;6.026;2024-02-21T14:43:38;9.50;;;3.20;;
79052;SDS011;68451;49.510;6.026;2024-02-21T14:45:40;5.10;;;2.83;;
79052;SDS011;68451;49.510;6.026;2024-02-21T14:47:42;12.37;;;3.80;;
79052;SDS011;68451;49.510;6.026;2024-02-21T14:49:44;8.07;;;3.53;;
79052;SDS011;68451;49.510;6.026;2024-02-21T14:51:46;9.50;;;3.03;;
79052;SDS011;68451;49.510;6.026;2024-02-21T14:53:47;6.07;;;2.90;;
79052;SDS011;68451;49.510;6.026;2024-02-21T14:55:50;13.77;;;3.60;;
79052;SDS011;68451;49.510;6.026;2024-02-21T14:57:52;8.80;;;4.17;;
79052;SDS011;68451;49.510;6.026;2024-02-21T14:59:54;5.37;;;2.77;;
79052;SDS011;68451;49.510;6.026;2024-02-21T15:01:58;6.80;;;2.90;;
79052;SDS011;68451;49.510;6.026;2024-02-21T15:04:00;7.07;;;3.67;;
79052;SDS011;68451;49.510;6.026;2024-02-21T15:06:02;7.17;;;3.20;;
79052;SDS011;68451;49.510;6.026;2024-02-21T15:08:04;7.10;;;3.90;;
79052;SDS011;68451;49.510;6.026;2024-02-21T15:10:07;6.47;;;3.13;;
79052;SDS011;68451;49.510;6.026;2024-02-21T15:12:09;9.20;;;3.60;;
79052;SDS011;68451;49.510;6.026;2024-02-21T15:14:11;5.47;;;3.10;;
79052;SDS011;68451;49.510;6.026;2024-02-21T15:16:13;6.97;;;4.23;;
79052;SDS011;68451;49.510;6.026;2024-02-21T15:20:16;6.03;;;3.53;;
79052;SDS011;68451;49.510;6.026;2024-02-21T15:24:21;6.23;;;3.40;;